createdAt,value
2019-03-23T00:01:51.894Z,6.67
2019-03-23T00:04:21.377Z,8.77
2019-03-23T00:06:50.729Z,6.80
2019-03-23T00:09:20.169Z,8.97
2019-03-23T00:11:49.515Z,6.33
2019-03-23T00:14:18.899Z,7.47
2019-03-23T00:16:48.209Z,7.63
2019-03-23T00:19:17.812Z,6.30
2019-03-23T00:21:47.108Z,6.40
2019-03-23T00:24:16.430Z,7.80
2019-03-23T00:26:45.727Z,6.23
2019-03-23T00:29:15.043Z,8.27
2019-03-23T00:31:44.413Z,6.53
2019-03-23T00:34:13.799Z,9.60
2019-03-23T00:36:43.148Z,8.23
2019-03-23T00:39:12.498Z,6.67
2019-03-23T00:41:41.802Z,6.87
2019-03-23T00:44:11.160Z,8.20
2019-03-23T00:46:40.450Z,6.53
2019-03-23T00:49:09.745Z,7.00
2019-03-23T00:51:39.278Z,9.43
2019-03-23T00:54:08.585Z,6.10
2019-03-23T00:56:37.870Z,6.67
2019-03-23T00:59:07.322Z,6.43
2019-03-23T01:01:36.761Z,7.87
2019-03-23T01:04:06.166Z,9.47
2019-03-23T01:06:35.530Z,7.20
2019-03-23T01:09:07.310Z,7.20
2019-03-23T01:11:36.647Z,6.83
2019-03-23T01:14:06.127Z,10.30
2019-03-23T01:16:35.927Z,7.27
2019-03-23T01:19:05.372Z,9.27
2019-03-23T01:21:34.646Z,7.93
2019-03-23T01:24:04.155Z,9.97
2019-03-23T01:26:33.422Z,8.03
2019-03-23T01:29:02.734Z,6.97
2019-03-23T01:31:32.020Z,8.20
2019-03-23T01:34:01.663Z,8.70
2019-03-23T01:36:30.987Z,9.37
2019-03-23T01:39:00.291Z,7.00
2019-03-23T01:41:29.913Z,7.33
2019-03-23T01:43:59.220Z,7.43
2019-03-23T01:46:28.835Z,7.23
2019-03-23T01:48:58.131Z,9.37
2019-03-23T01:51:27.679Z,7.20
2019-03-23T01:53:56.978Z,7.03
2019-03-23T01:56:26.265Z,7.20
2019-03-23T01:58:55.563Z,7.43
2019-03-23T02:01:24.866Z,8.03
2019-03-23T02:03:54.178Z,7.50
2019-03-23T02:06:23.462Z,7.20
2019-03-23T02:08:52.762Z,9.27
2019-03-23T02:11:22.110Z,6.97
2019-03-23T02:13:51.399Z,7.93
2019-03-23T02:16:20.675Z,8.00
2019-03-23T02:18:50.258Z,7.27
2019-03-23T02:21:19.572Z,7.67
2019-03-23T02:23:49.127Z,11.33
2019-03-23T02:26:18.418Z,8.93
2019-03-23T02:28:47.787Z,9.13
2019-03-23T02:31:17.409Z,8.80
2019-03-23T02:33:46.713Z,9.77
2019-03-23T02:36:16.275Z,7.97
2019-03-23T02:38:45.579Z,9.13
2019-03-23T02:41:14.867Z,7.83
2019-03-23T02:43:44.177Z,10.00
2019-03-23T02:46:13.467Z,9.10
2019-03-23T02:48:42.915Z,10.90
2019-03-23T02:51:12.212Z,10.27
2019-03-23T02:53:41.508Z,7.90
2019-03-23T02:56:10.791Z,8.37
2019-03-23T02:58:40.091Z,10.77
2019-03-23T03:01:09.375Z,11.73
2019-03-23T03:03:38.819Z,10.40
2019-03-23T03:06:08.129Z,8.63
2019-03-23T03:08:37.663Z,7.97
2019-03-23T03:11:07.214Z,9.60
2019-03-23T03:13:36.573Z,11.23
2019-03-23T03:16:05.895Z,10.03
2019-03-23T03:18:35.260Z,8.23
2019-03-23T03:21:04.646Z,8.87
2019-03-23T03:23:33.930Z,8.23
2019-03-23T03:26:03.222Z,11.53
2019-03-23T03:28:32.597Z,10.53
2019-03-23T03:31:02.329Z,9.30
2019-03-23T03:33:31.727Z,9.20
2019-03-23T03:36:01.126Z,12.10
2019-03-23T03:38:30.705Z,10.60
2019-03-23T03:41:00.095Z,11.27
2019-03-23T03:43:29.381Z,10.47
2019-03-23T03:45:58.706Z,8.60
2019-03-23T03:48:27.972Z,9.53
2019-03-23T03:50:57.518Z,13.43
2019-03-23T03:53:26.831Z,11.00
2019-03-23T03:55:56.123Z,10.70
2019-03-23T03:58:25.415Z,11.47
2019-03-23T04:00:54.721Z,10.13
2019-03-23T04:03:24.028Z,9.67
2019-03-23T04:05:53.412Z,10.10
2019-03-23T04:08:22.710Z,11.10
2019-03-23T04:10:52.131Z,9.17
2019-03-23T04:13:21.428Z,12.03
2019-03-23T04:15:50.741Z,11.67
2019-03-23T04:18:20.348Z,10.30
2019-03-23T04:20:49.653Z,10.97
2019-03-23T04:23:18.959Z,10.63
2019-03-23T04:25:48.258Z,10.37
2019-03-23T04:28:17.823Z,13.93
2019-03-23T04:30:47.179Z,12.27
2019-03-23T04:33:16.510Z,10.23
2019-03-23T04:35:45.800Z,10.63
2019-03-23T04:38:22.537Z,11.30
2019-03-23T04:40:46.395Z,10.97
2019-03-23T04:43:15.694Z,11.23
2019-03-23T04:45:45.038Z,11.93
2019-03-23T04:48:14.386Z,12.47
2019-03-23T04:50:43.751Z,11.90
2019-03-23T04:53:13.410Z,10.57
2019-03-23T04:55:42.711Z,12.70
2019-03-23T04:58:12.029Z,10.70
2019-03-23T05:00:41.654Z,13.73
2019-03-23T05:03:10.975Z,9.80
2019-03-23T05:05:40.318Z,11.90
2019-03-23T05:08:09.794Z,13.60
2019-03-23T05:10:39.110Z,13.53
2019-03-23T05:13:08.438Z,11.80
2019-03-23T05:15:37.738Z,14.10
2019-03-23T05:18:07.147Z,13.87
2019-03-23T05:20:36.524Z,15.53
2019-03-23T05:23:05.898Z,14.90
2019-03-23T05:25:35.304Z,16.70
2019-03-23T05:28:04.721Z,12.63
2019-03-23T05:30:34.023Z,10.93
2019-03-23T05:33:03.563Z,14.43
2019-03-23T05:35:33.030Z,13.83
2019-03-23T05:38:02.336Z,14.10
2019-03-23T05:40:31.653Z,15.20
2019-03-23T05:43:00.962Z,14.03
2019-03-23T05:45:30.547Z,11.07
2019-03-23T05:48:00.011Z,13.63
2019-03-23T05:50:29.338Z,13.83
2019-03-23T05:52:58.675Z,16.43
2019-03-23T05:55:28.316Z,19.57
2019-03-23T05:57:57.634Z,24.20
2019-03-23T06:00:27.061Z,23.43
2019-03-23T06:02:56.385Z,14.67
2019-03-23T06:05:25.718Z,13.13
2019-03-23T06:07:55.031Z,22.93
2019-03-23T06:10:24.449Z,14.50
2019-03-23T06:12:53.847Z,12.30
2019-03-23T06:15:23.389Z,13.77
2019-03-23T06:17:52.719Z,13.80
2019-03-23T06:20:22.131Z,17.87
2019-03-23T06:22:51.454Z,16.83
2019-03-23T06:25:20.956Z,12.07
2019-03-23T06:27:50.258Z,15.80
2019-03-23T06:30:19.581Z,14.70
2019-03-23T06:32:48.902Z,17.20
2019-03-23T06:35:18.242Z,15.67
2019-03-23T06:37:47.883Z,15.00
2019-03-23T06:40:17.219Z,13.07
2019-03-23T06:42:46.606Z,15.70
2019-03-23T06:45:16.108Z,17.60
2019-03-23T06:47:45.532Z,15.80
2019-03-23T06:50:15.082Z,13.07
2019-03-23T06:52:44.399Z,14.83
2019-03-23T06:55:14.042Z,16.33
2019-03-23T06:57:43.358Z,14.10
2019-03-23T07:00:12.943Z,11.70
2019-03-23T07:02:42.610Z,14.47
2019-03-23T07:05:13.095Z,11.53
2019-03-23T07:07:42.510Z,11.23
2019-03-23T07:10:12.062Z,11.97
2019-03-23T07:12:41.581Z,12.87
2019-03-23T07:15:19.543Z,13.47
2019-03-23T07:17:42.731Z,13.37
2019-03-23T07:20:12.721Z,13.10
2019-03-23T07:22:42.779Z,13.97
2019-03-23T07:25:13.322Z,12.60
2019-03-23T07:27:42.651Z,13.27
2019-03-23T07:30:13.631Z,12.07
2019-03-23T07:32:43.119Z,16.20
2019-03-23T07:35:13.377Z,22.43
2019-03-23T07:37:42.777Z,22.97
2019-03-23T07:40:12.864Z,24.07
2019-03-23T07:42:42.187Z,23.57
2019-03-23T07:45:12.609Z,24.87
2019-03-23T07:47:42.071Z,27.83
2019-03-23T07:50:11.846Z,27.07
2019-03-23T07:52:41.174Z,26.05
2019-03-23T07:55:12.314Z,23.50
2019-03-23T07:57:42.124Z,34.13
2019-03-23T08:00:13.816Z,25.43
2019-03-23T08:02:44.154Z,29.32
2019-03-23T08:05:13.545Z,29.18
2019-03-23T08:07:43.258Z,24.05
2019-03-23T08:10:26.641Z,24.18
2019-03-23T08:12:56.291Z,30.00
2019-03-23T08:15:25.678Z,29.63
2019-03-23T08:17:55.277Z,30.68
2019-03-23T08:20:24.643Z,30.48
2019-03-23T08:22:54.197Z,35.52
2019-03-23T08:25:23.567Z,35.78
2019-03-23T08:27:52.895Z,34.78
2019-03-23T08:30:22.207Z,40.67
2019-03-23T08:32:51.546Z,44.18
2019-03-23T08:35:20.959Z,45.70
2019-03-23T08:37:50.278Z,43.52
2019-03-23T08:40:19.968Z,49.63
2019-03-23T08:42:49.362Z,49.67
2019-03-23T08:45:18.722Z,52.65
2019-03-23T08:47:48.066Z,53.90
2019-03-23T08:50:17.692Z,56.05
2019-03-23T08:52:47.046Z,54.90
2019-03-23T08:55:16.354Z,61.42
2019-03-23T08:57:45.711Z,61.53
2019-03-23T09:00:15.309Z,60.90
2019-03-23T09:02:44.752Z,63.65
2019-03-23T09:05:14.163Z,68.72
2019-03-23T09:07:43.472Z,63.55
2019-03-23T09:10:13.151Z,65.10
2019-03-23T09:12:42.458Z,69.35
2019-03-23T09:15:12.231Z,67.60
2019-03-23T09:17:41.544Z,76.92
2019-03-23T09:20:11.843Z,74.10
2019-03-23T09:22:41.158Z,74.22
2019-03-23T09:25:10.652Z,86.17
2019-03-23T09:27:40.030Z,91.45
2019-03-23T09:30:10.139Z,90.15
2019-03-23T09:32:39.551Z,92.23
2019-03-23T09:35:09.320Z,100.47
2019-03-23T09:37:38.718Z,98.00
2019-03-23T09:40:11.021Z,103.37
2019-03-23T09:42:40.262Z,102.67
2019-03-23T09:45:09.941Z,107.53
2019-03-23T09:47:39.651Z,106.33
2019-03-23T09:50:09.646Z,115.57
2019-03-23T09:52:38.961Z,101.30
2019-03-23T09:55:08.574Z,106.67
2019-03-23T09:57:38.046Z,114.10
2019-03-23T10:00:08.472Z,120.53
2019-03-23T10:02:37.771Z,116.37
2019-03-23T10:05:07.426Z,115.97
2019-03-23T10:07:36.823Z,117.37
2019-03-23T10:10:07.115Z,115.37
2019-03-23T10:12:36.617Z,118.67
2019-03-23T10:15:06.878Z,114.50
2019-03-23T10:17:36.235Z,117.03
2019-03-23T10:20:06.520Z,118.73
2019-03-23T10:22:36.138Z,116.57
2019-03-23T10:25:05.723Z,109.33
2019-03-23T10:27:35.471Z,116.33
2019-03-23T10:30:05.401Z,111.07
2019-03-23T10:32:34.775Z,114.33
2019-03-23T10:35:05.418Z,113.33
2019-03-23T10:37:35.118Z,111.00
2019-03-23T10:40:04.830Z,118.27
2019-03-23T10:42:34.458Z,105.43
2019-03-23T10:45:04.266Z,111.13
2019-03-23T10:47:33.735Z,108.53
2019-03-23T10:50:03.171Z,109.43
2019-03-23T10:52:32.570Z,109.17
2019-03-23T10:55:01.882Z,99.10
2019-03-23T10:57:31.210Z,101.50
2019-03-23T11:00:00.603Z,101.33
2019-03-23T11:02:30.106Z,100.33
2019-03-23T11:05:19.188Z,94.50
2019-03-23T11:07:48.573Z,97.47
2019-03-23T11:10:18.150Z,90.60
2019-03-23T11:12:47.484Z,95.57
2019-03-23T11:15:17.562Z,93.80
2019-03-23T11:17:47.014Z,91.73
2019-03-23T11:20:16.519Z,99.33
2019-03-23T11:22:45.960Z,88.93
2019-03-23T11:25:15.495Z,95.80
2019-03-23T11:27:44.939Z,101.70
2019-03-23T11:30:14.716Z,108.70
2019-03-23T11:32:44.711Z,100.80
2019-03-23T11:35:14.415Z,131.40
2019-03-23T11:37:44.009Z,119.00
2019-03-23T11:40:13.685Z,137.47
2019-03-23T11:42:49.976Z,108.93
2019-03-23T11:45:14.387Z,111.40
2019-03-23T11:47:43.962Z,104.57
2019-03-23T11:50:13.532Z,98.67
2019-03-23T11:52:42.833Z,116.40
2019-03-23T11:55:12.816Z,98.87
2019-03-23T11:57:42.204Z,104.15
2019-03-23T12:00:12.581Z,112.63
2019-03-23T12:02:42.317Z,108.55
2019-03-23T12:05:11.754Z,108.07
2019-03-23T12:07:41.162Z,112.97
2019-03-23T12:10:11.057Z,112.35
2019-03-23T12:12:40.365Z,113.60
2019-03-23T12:15:10.257Z,107.30
2019-03-23T12:17:39.640Z,115.62
2019-03-23T12:20:10.121Z,116.82
2019-03-23T12:22:39.646Z,115.97
2019-03-23T12:25:09.406Z,114.25
2019-03-23T12:27:39.150Z,110.78
2019-03-23T12:30:10.069Z,116.55
2019-03-23T12:32:39.522Z,111.85
2019-03-23T12:35:09.311Z,112.47
2019-03-23T12:37:38.762Z,113.70
2019-03-23T12:40:09.003Z,113.07
2019-03-23T12:42:38.326Z,112.70
2019-03-23T12:45:08.235Z,111.05
2019-03-23T12:47:37.548Z,118.17
2019-03-23T12:50:07.983Z,110.22
2019-03-23T12:52:37.767Z,113.60
2019-03-23T12:55:07.598Z,115.80
2019-03-23T12:57:37.216Z,111.47
2019-03-23T13:00:09.070Z,107.70
2019-03-23T13:02:38.418Z,112.68
2019-03-23T13:05:08.249Z,109.87
2019-03-23T13:07:37.612Z,108.52
2019-03-23T13:10:07.866Z,110.22
2019-03-23T13:12:37.194Z,109.57
2019-03-23T13:15:08.135Z,105.22
2019-03-23T13:17:37.832Z,107.25
2019-03-23T13:20:08.757Z,109.25
2019-03-23T13:22:38.355Z,112.62
2019-03-23T13:25:08.387Z,117.82
2019-03-23T13:27:37.754Z,114.77
2019-03-23T13:30:08.295Z,111.27
2019-03-23T13:32:37.681Z,105.30
2019-03-23T13:35:07.866Z,110.17
2019-03-23T13:37:37.264Z,107.67
2019-03-23T13:40:07.202Z,104.77
2019-03-23T13:42:36.530Z,107.05
2019-03-23T13:45:07.129Z,106.87
2019-03-23T13:47:36.567Z,109.05
2019-03-23T13:50:06.920Z,104.70
2019-03-23T13:52:36.362Z,101.30
2019-03-23T13:55:06.573Z,98.67
2019-03-23T13:57:36.056Z,104.25
2019-03-23T14:00:06.319Z,104.10
2019-03-23T14:02:35.802Z,96.10
2019-03-23T14:05:12.253Z,107.45
2019-03-23T14:07:37.089Z,100.70
2019-03-23T14:10:06.846Z,100.42
2019-03-23T14:12:36.130Z,97.22
2019-03-23T14:15:06.113Z,98.62
2019-03-23T14:17:35.414Z,98.10
2019-03-23T14:20:05.330Z,102.10
2019-03-23T14:22:34.835Z,102.53
2019-03-23T14:25:04.735Z,94.72
2019-03-23T14:27:34.135Z,101.83
2019-03-23T14:30:04.074Z,97.53
2019-03-23T14:32:33.635Z,97.20
2019-03-23T14:35:03.155Z,91.95
2019-03-23T14:37:32.483Z,92.30
2019-03-23T14:40:01.779Z,93.67
2019-03-23T14:42:31.372Z,88.60
2019-03-23T14:45:00.679Z,88.00
2019-03-23T14:47:30.062Z,88.27
2019-03-23T14:49:59.438Z,92.97
2019-03-23T14:52:28.757Z,83.30
2019-03-23T14:54:58.143Z,82.47
2019-03-23T14:57:27.941Z,86.78
2019-03-23T14:59:57.247Z,84.40
2019-03-23T15:02:26.550Z,80.10
2019-03-23T15:04:55.871Z,89.07
2019-03-23T15:07:25.443Z,74.70
2019-03-23T15:09:54.742Z,75.40
2019-03-23T15:12:24.125Z,73.40
2019-03-23T15:14:53.423Z,68.43
2019-03-23T15:17:22.783Z,73.13
2019-03-23T15:19:52.362Z,71.25
2019-03-23T15:22:21.687Z,70.77
2019-03-23T15:24:51.276Z,69.53
2019-03-23T15:27:20.573Z,65.45
2019-03-23T15:29:49.866Z,64.30
2019-03-23T15:32:19.184Z,63.87
2019-03-23T15:34:48.863Z,61.27
2019-03-23T15:37:18.178Z,66.30
2019-03-23T15:39:47.506Z,64.03
2019-03-23T15:42:24.407Z,65.07
2019-03-23T15:44:47.923Z,62.33
2019-03-23T15:47:17.227Z,63.57
2019-03-23T15:49:46.649Z,64.43
2019-03-23T15:52:15.942Z,66.00
2019-03-23T15:54:45.238Z,62.17
2019-03-23T15:57:20.808Z,55.67
2019-03-23T15:59:50.122Z,58.23
2019-03-23T16:02:19.434Z,58.20
2019-03-23T16:04:48.731Z,58.00
2019-03-23T16:07:18.046Z,57.23
2019-03-23T16:09:47.347Z,59.13
2019-03-23T16:12:16.646Z,57.90
2019-03-23T16:14:45.958Z,55.77
2019-03-23T16:17:15.614Z,58.27
2019-03-23T16:19:44.982Z,53.90
2019-03-23T16:22:14.299Z,58.40
2019-03-23T16:24:43.644Z,56.60
2019-03-23T16:27:12.940Z,53.47
2019-03-23T16:29:42.250Z,54.87
2019-03-23T16:32:11.893Z,55.27
2019-03-23T16:34:41.506Z,48.87
2019-03-23T16:37:10.799Z,46.43
2019-03-23T16:39:40.098Z,40.37
2019-03-23T16:42:09.440Z,43.03
2019-03-23T16:44:38.751Z,40.17
2019-03-23T16:47:08.133Z,38.93
2019-03-23T16:49:37.451Z,39.37
2019-03-23T16:52:06.822Z,39.43
2019-03-23T16:54:36.210Z,35.97
2019-03-23T16:57:05.906Z,35.00
2019-03-23T16:59:36.396Z,31.97
2019-03-23T17:02:05.871Z,30.53
2019-03-23T17:04:35.170Z,33.00
2019-03-23T17:07:04.550Z,28.20
2019-03-23T17:09:33.973Z,31.27
2019-03-23T17:12:03.307Z,29.07
2019-03-23T17:14:32.632Z,28.07
2019-03-23T17:17:02.063Z,29.37
2019-03-23T17:19:31.503Z,26.43
2019-03-23T17:22:00.807Z,24.80
2019-03-23T17:24:30.135Z,25.33
2019-03-23T17:26:59.618Z,23.17
2019-03-23T17:29:28.938Z,26.30
2019-03-23T17:31:58.275Z,25.80
2019-03-23T17:34:27.643Z,25.97
2019-03-23T17:36:56.983Z,30.90
2019-03-23T17:39:26.415Z,26.53
2019-03-23T17:41:55.715Z,26.03
2019-03-23T17:44:25.088Z,26.93
2019-03-23T17:46:54.489Z,26.33
2019-03-23T17:49:23.809Z,27.93
2019-03-23T17:51:55.396Z,29.03
2019-03-23T17:54:24.159Z,27.13
2019-03-23T17:56:54.082Z,30.73
2019-03-23T17:59:23.547Z,32.67
2019-03-23T18:01:52.967Z,36.50
2019-03-23T18:04:22.288Z,30.27
2019-03-23T18:06:51.615Z,32.17
2019-03-23T18:09:21.184Z,28.43
2019-03-23T18:11:50.581Z,28.57
2019-03-23T18:14:20.582Z,29.00
2019-03-23T18:16:50.071Z,30.10
2019-03-23T18:19:19.383Z,28.20
2019-03-23T18:21:49.142Z,29.77
2019-03-23T18:24:18.454Z,26.27
2019-03-23T18:26:47.799Z,27.63
2019-03-23T18:29:17.088Z,31.13
2019-03-23T18:31:46.521Z,28.93
2019-03-23T18:34:15.886Z,29.87
2019-03-23T18:36:45.343Z,31.27
2019-03-23T18:39:15.010Z,28.37
2019-03-23T18:41:44.711Z,28.70
2019-03-23T18:44:16.366Z,28.80
2019-03-23T18:46:45.272Z,28.77
2019-03-23T18:49:14.575Z,30.77
2019-03-23T18:51:43.894Z,32.47
2019-03-23T18:54:13.199Z,28.40
2019-03-23T18:56:42.510Z,27.17
2019-03-23T18:59:11.805Z,29.07
2019-03-23T19:01:41.462Z,33.70
2019-03-23T19:04:10.796Z,30.23
2019-03-23T19:06:40.119Z,30.37
2019-03-23T19:09:09.418Z,35.43
2019-03-23T19:11:39.382Z,34.10
2019-03-23T19:14:08.770Z,31.27
2019-03-23T19:16:38.068Z,31.50
2019-03-23T19:19:07.519Z,28.10
2019-03-23T19:21:36.966Z,31.23
2019-03-23T19:24:06.371Z,31.40
2019-03-23T19:26:35.738Z,31.70
2019-03-23T19:29:05.126Z,33.10
2019-03-23T19:31:34.443Z,38.50
2019-03-23T19:34:04.142Z,33.30
2019-03-23T19:36:33.488Z,33.63
2019-03-23T19:39:04.476Z,39.23
2019-03-23T19:41:33.914Z,31.43
2019-03-23T19:44:03.328Z,38.27
2019-03-23T19:46:32.634Z,35.80
2019-03-23T19:49:02.020Z,33.93
2019-03-23T19:51:31.344Z,33.27
2019-03-23T19:54:01.005Z,37.70
2019-03-23T19:56:30.438Z,36.17
2019-03-23T19:58:59.774Z,37.57
2019-03-23T20:01:29.083Z,31.07
2019-03-23T20:03:58.413Z,35.17
2019-03-23T20:06:28.077Z,35.03
2019-03-23T20:08:57.375Z,37.20
2019-03-23T20:11:26.682Z,35.50
2019-03-23T20:13:59.040Z,34.97
2019-03-23T20:16:26.991Z,35.43
2019-03-23T20:18:56.374Z,34.97
2019-03-23T20:21:25.675Z,44.73
2019-03-23T20:23:54.983Z,38.10
2019-03-23T20:26:24.278Z,38.07
2019-03-23T20:28:53.580Z,37.60
2019-03-23T20:31:22.877Z,39.13
2019-03-23T20:33:52.199Z,35.83
2019-03-23T20:36:21.584Z,40.27
2019-03-23T20:38:50.919Z,35.43
2019-03-23T20:41:20.515Z,38.40
2019-03-23T20:43:49.890Z,36.73
2019-03-23T20:46:19.204Z,31.40
2019-03-23T20:48:48.740Z,35.83
2019-03-23T20:51:18.302Z,42.97
2019-03-23T20:53:47.705Z,33.77
2019-03-23T20:56:17.083Z,37.17
2019-03-23T20:58:46.546Z,38.50
2019-03-23T21:01:15.874Z,43.67
2019-03-23T21:03:45.173Z,38.20
2019-03-23T21:06:14.558Z,37.10
2019-03-23T21:08:43.850Z,36.30
2019-03-23T21:11:13.247Z,40.33
2019-03-23T21:13:42.541Z,132.13
2019-03-23T21:16:11.910Z,50.53
2019-03-23T21:18:41.207Z,90.57
2019-03-23T21:21:10.517Z,42.37
2019-03-23T21:23:40.143Z,38.57
2019-03-23T21:26:09.558Z,39.90
2019-03-23T21:28:38.863Z,43.90
2019-03-23T21:31:08.347Z,38.90
2019-03-23T21:33:38.976Z,32.93
2019-03-23T21:36:08.491Z,40.70
2019-03-23T21:38:37.819Z,53.13
2019-03-23T21:41:07.414Z,43.90
2019-03-23T21:43:36.723Z,49.30
2019-03-23T21:46:06.117Z,67.03
2019-03-23T21:48:35.549Z,43.07
2019-03-23T21:51:04.961Z,40.53
2019-03-23T21:53:34.258Z,59.87
2019-03-23T21:56:03.741Z,51.90
2019-03-23T21:58:33.267Z,52.30
2019-03-23T22:01:02.664Z,41.80
2019-03-23T22:03:31.970Z,39.23
2019-03-23T22:06:01.562Z,39.83
2019-03-23T22:08:30.850Z,53.67
2019-03-23T22:11:00.407Z,48.83
2019-03-23T22:13:29.708Z,43.57
2019-03-23T22:15:59.031Z,43.33
2019-03-23T22:18:28.678Z,47.63
2019-03-23T22:20:57.986Z,42.50
2019-03-23T22:23:27.308Z,44.87
2019-03-23T22:25:56.604Z,49.27
2019-03-23T22:28:25.917Z,52.80
2019-03-23T22:30:55.224Z,42.73
2019-03-23T22:33:24.558Z,49.57
2019-03-23T22:35:53.894Z,57.23
2019-03-23T22:38:23.202Z,48.83
2019-03-23T22:40:52.504Z,50.37
2019-03-23T22:43:21.810Z,47.80
2019-03-23T22:45:51.346Z,49.57
2019-03-23T22:48:20.641Z,44.83
2019-03-23T22:50:50.010Z,43.37
2019-03-23T22:53:19.694Z,54.43
2019-03-23T22:55:49.077Z,41.37
2019-03-23T22:58:18.468Z,54.10
2019-03-23T23:00:48.687Z,47.20
2019-03-23T23:03:18.060Z,47.40
2019-03-23T23:06:06.306Z,43.17
2019-03-23T23:08:35.850Z,49.40
2019-03-23T23:11:05.243Z,54.43
2019-03-23T23:13:34.817Z,39.77
2019-03-23T23:16:04.175Z,59.60
2019-03-23T23:18:33.496Z,53.37
2019-03-23T23:21:02.779Z,55.10
2019-03-23T23:23:32.079Z,67.13
2019-03-23T23:26:01.386Z,64.93
2019-03-23T23:28:30.699Z,62.37
2019-03-23T23:30:59.982Z,62.13
2019-03-23T23:33:29.289Z,57.40
2019-03-23T23:35:58.581Z,43.73
2019-03-23T23:38:27.949Z,43.17
2019-03-23T23:40:57.239Z,59.17
2019-03-23T23:43:26.685Z,49.87
2019-03-23T23:45:55.978Z,41.33
2019-03-23T23:48:25.299Z,55.93
2019-03-23T23:50:54.618Z,44.70
2019-03-23T23:53:23.965Z,55.27
2019-03-23T23:55:53.254Z,49.10
2019-03-23T23:58:22.563Z,44.97
